Terminal Aerodrome Forecast
Issued by NWS

Home | Current Version | Previous Version | Text Only | Print | Product List | Glossary On
Versions: 1 2 3 4 5 6 7 8 9 10 11 12
000
FTUS45 KRIW 010500
TAFCOD
TAF
KCOD 010523Z 0106/0206 25005KT P6SM SCT250
     FM011700 04006KT P6SM FEW090
     FM012300 04006KT P6SM VCSH SCT090 BKN130
     FM020200 VRB04KT P6SM SCT100 BKN150
      AMD LTD TO CLD VIS AND WIND=

USA.gov is the U.S. government's official web portal to all federal, state and local government web resources and services.